sensor_id;sensor_type;location;lat;lon;timestamp;pressure;altitude;pressure_sealevel;temperature;humidity
10462;BME280;5278;42.656;23.374;2024-02-15T00:02:02;95016.13;;;7.85;57.88
10462;BME280;5278;42.656;23.374;2024-02-15T00:04:30;95015.78;;;7.52;59.51
10462;BME280;5278;42.656;23.374;2024-02-15T00:06:58;95020.06;;;7.26;60.58
10462;BME280;5278;42.656;23.374;2024-02-15T00:09:25;95024.38;;;6.98;62.14
10462;BME280;5278;42.656;23.374;2024-02-15T00:11:52;95026.63;;;6.83;62.99
10462;BME280;5278;42.656;23.374;2024-02-15T00:14:19;95033.88;;;6.70;63.87
10462;BME280;5278;42.656;23.374;2024-02-15T00:16:46;95030.41;;;6.52;64.30
10462;BME280;5278;42.656;23.374;2024-02-15T00:19:12;95023.47;;;6.43;64.96
10462;BME280;5278;42.656;23.374;2024-02-15T00:21:43;95031.09;;;6.35;65.78
10462;BME280;5278;42.656;23.374;2024-02-15T00:24:10;95028.53;;;6.35;65.97
10462;BME280;5278;42.656;23.374;2024-02-15T00:26:37;95033.31;;;6.20;66.27
10462;BME280;5278;42.656;23.374;2024-02-15T00:29:04;95033.44;;;6.19;66.47
10462;BME280;5278;42.656;23.374;2024-02-15T00:31:31;95021.66;;;6.07;66.54
10462;BME280;5278;42.656;23.374;2024-02-15T00:33:57;95031.69;;;6.10;66.77
10462;BME280;5278;42.656;23.374;2024-02-15T00:36:24;95036.97;;;6.08;67.03
10462;BME280;5278;42.656;23.374;2024-02-15T00:38:52;95035.78;;;6.02;67.54
10462;BME280;5278;42.656;23.374;2024-02-15T00:41:19;95032.78;;;5.97;67.81
10462;BME280;5278;42.656;23.374;2024-02-15T00:43:46;95040.78;;;5.94;67.86
10462;BME280;5278;42.656;23.374;2024-02-15T00:46:13;95041.06;;;5.91;67.90
10462;BME280;5278;42.656;23.374;2024-02-15T00:48:40;95046.22;;;5.91;68.07
10462;BME280;5278;42.656;23.374;2024-02-15T00:51:07;95039.13;;;5.93;68.18
10462;BME280;5278;42.656;23.374;2024-02-15T00:53:34;95034.38;;;5.98;67.89
10462;BME280;5278;42.656;23.374;2024-02-15T00:56:02;95040.13;;;6.02;67.56
10462;BME280;5278;42.656;23.374;2024-02-15T00:58:30;95038.34;;;6.02;67.91
10462;BME280;5278;42.656;23.374;2024-02-15T01:00:56;95032.38;;;6.02;67.50
10462;BME280;5278;42.656;23.374;2024-02-15T01:03:23;95050.56;;;5.91;67.60
10462;BME280;5278;42.656;23.374;2024-02-15T01:05:50;95035.22;;;5.89;68.10
10462;BME280;5278;42.656;23.374;2024-02-15T01:08:18;95045.66;;;5.88;67.96
10462;BME280;5278;42.656;23.374;2024-02-15T01:10:45;95037.25;;;5.95;67.89
10462;BME280;5278;42.656;23.374;2024-02-15T01:13:14;95040.25;;;6.00;67.63
10462;BME280;5278;42.656;23.374;2024-02-15T01:15:40;95041.19;;;5.99;67.70
10462;BME280;5278;42.656;23.374;2024-02-15T01:18:07;95034.97;;;5.92;67.80
10462;BME280;5278;42.656;23.374;2024-02-15T01:20:33;95030.47;;;5.94;67.54
10462;BME280;5278;42.656;23.374;2024-02-15T01:23:01;95039.97;;;5.94;67.52
10462;BME280;5278;42.656;23.374;2024-02-15T01:25:28;95032.09;;;5.95;67.66
10462;BME280;5278;42.656;23.374;2024-02-15T01:27:55;95026.41;;;5.92;67.46
10462;BME280;5278;42.656;23.374;2024-02-15T01:30:23;95033.16;;;5.93;67.35
10462;BME280;5278;42.656;23.374;2024-02-15T01:32:49;95030.47;;;5.94;67.50
10462;BME280;5278;42.656;23.374;2024-02-15T01:35:16;95032.91;;;5.96;67.01
10462;BME280;5278;42.656;23.374;2024-02-15T01:37:42;95027.44;;;5.80;67.60
10462;BME280;5278;42.656;23.374;2024-02-15T01:40:09;95023.13;;;5.80;68.02
10462;BME280;5278;42.656;23.374;2024-02-15T01:42:38;95022.56;;;5.67;68.15
10462;BME280;5278;42.656;23.374;2024-02-15T01:45:05;95040.19;;;5.62;68.62
10462;BME280;5278;42.656;23.374;2024-02-15T01:47:33;95030.16;;;5.59;69.30
10462;BME280;5278;42.656;23.374;2024-02-15T01:50:00;95034.06;;;5.63;68.84
10462;BME280;5278;42.656;23.374;2024-02-15T01:52:28;95032.88;;;5.67;68.83
10462;BME280;5278;42.656;23.374;2024-02-15T01:54:55;95027.72;;;5.67;68.63
10462;BME280;5278;42.656;23.374;2024-02-15T01:57:23;95031.66;;;5.71;68.66
10462;BME280;5278;42.656;23.374;2024-02-15T01:59:50;95035.88;;;5.72;68.55
10462;BME280;5278;42.656;23.374;2024-02-15T02:02:19;95027.84;;;5.75;68.19
10462;BME280;5278;42.656;23.374;2024-02-15T02:04:48;95040.34;;;5.80;68.01
10462;BME280;5278;42.656;23.374;2024-02-15T02:07:15;95036.94;;;5.79;67.97
10462;BME280;5278;42.656;23.374;2024-02-15T02:09:41;95040.09;;;5.83;67.90
10462;BME280;5278;42.656;23.374;2024-02-15T02:12:09;95027.97;;;5.83;67.70
10462;BME280;5278;42.656;23.374;2024-02-15T02:14:36;95045.50;;;5.70;68.10
10462;BME280;5278;42.656;23.374;2024-02-15T02:17:12;95040.19;;;5.62;68.27
10462;BME280;5278;42.656;23.374;2024-02-15T02:19:40;95047.25;;;5.60;68.60
10462;BME280;5278;42.656;23.374;2024-02-15T02:22:08;95047.25;;;5.60;68.64
10462;BME280;5278;42.656;23.374;2024-02-15T02:24:43;95044.66;;;5.60;68.95
10462;BME280;5278;42.656;23.374;2024-02-15T02:27:14;95035.72;;;5.64;68.97
10462;BME280;5278;42.656;23.374;2024-02-15T02:29:42;95009.09;;;5.35;68.81
10462;BME280;5278;42.656;23.374;2024-02-15T02:32:11;95051.56;;;5.59;68.99
10462;BME280;5278;42.656;23.374;2024-02-15T02:34:38;95052.78;;;5.55;69.27
10462;BME280;5278;42.656;23.374;2024-02-15T02:37:06;95057.97;;;5.65;69.20
10462;BME280;5278;42.656;23.374;2024-02-15T02:39:33;95054.84;;;5.61;69.09
10462;BME280;5278;42.656;23.374;2024-02-15T02:42:00;95058.50;;;5.69;69.28
10462;BME280;5278;42.656;23.374;2024-02-15T02:44:28;95063.00;;;5.76;69.06
10462;BME280;5278;42.656;23.374;2024-02-15T02:46:55;95038.03;;;5.77;68.50
10462;BME280;5278;42.656;23.374;2024-02-15T02:49:21;95053.75;;;5.83;68.36
10462;BME280;5278;42.656;23.374;2024-02-15T02:51:48;95055.97;;;5.88;68.46
10462;BME280;5278;42.656;23.374;2024-02-15T02:54:15;95060.88;;;5.91;68.14
10462;BME280;5278;42.656;23.374;2024-02-15T02:56:41;95058.41;;;5.89;68.14
10462;BME280;5278;42.656;23.374;2024-02-15T02:59:10;95067.66;;;5.92;67.80
10462;BME280;5278;42.656;23.374;2024-02-15T03:01:39;95068.44;;;5.83;68.50
10462;BME280;5278;42.656;23.374;2024-02-15T03:04:06;95076.84;;;5.85;68.23
10462;BME280;5278;42.656;23.374;2024-02-15T03:06:33;95074.97;;;5.87;68.30
10462;BME280;5278;42.656;23.374;2024-02-15T03:09:02;95070.66;;;5.87;68.31
10462;BME280;5278;42.656;23.374;2024-02-15T03:11:32;95076.19;;;5.83;67.89
10462;BME280;5278;42.656;23.374;2024-02-15T03:13:59;95071.16;;;5.81;67.76
10462;BME280;5278;42.656;23.374;2024-02-15T03:16:25;95066.81;;;5.82;67.97
10462;BME280;5278;42.656;23.374;2024-02-15T03:18:54;95066.00;;;5.81;68.05
10462;BME280;5278;42.656;23.374;2024-02-15T03:21:20;95066.22;;;5.69;68.43
10462;BME280;5278;42.656;23.374;2024-02-15T03:23:47;95062.28;;;5.64;68.88
10462;BME280;5278;42.656;23.374;2024-02-15T03:26:14;95070.56;;;5.68;68.88
10462;BME280;5278;42.656;23.374;2024-02-15T03:28:40;95079.00;;;5.70;68.83
10462;BME280;5278;42.656;23.374;2024-02-15T03:31:07;95056.59;;;5.51;69.03
10462;BME280;5278;42.656;23.374;2024-02-15T03:33:35;95085.91;;;5.60;69.21
10462;BME280;5278;42.656;23.374;2024-02-15T03:36:04;95078.69;;;5.63;69.39
10462;BME280;5278;42.656;23.374;2024-02-15T03:38:31;95071.66;;;5.56;69.30
10462;BME280;5278;42.656;23.374;2024-02-15T03:40:58;95067.72;;;5.61;69.26
10462;BME280;5278;42.656;23.374;2024-02-15T03:43:25;95081.16;;;5.65;69.68
10462;BME280;5278;42.656;23.374;2024-02-15T03:45:51;95074.94;;;5.68;69.30
10462;BME280;5278;42.656;23.374;2024-02-15T03:48:18;95076.28;;;5.62;69.25
10462;BME280;5278;42.656;23.374;2024-02-15T03:50:45;95078.16;;;5.60;69.40
10462;BME280;5278;42.656;23.374;2024-02-15T03:53:14;95072.88;;;5.52;69.58
10462;BME280;5278;42.656;23.374;2024-02-15T03:55:41;95077.63;;;5.56;69.65
10462;BME280;5278;42.656;23.374;2024-02-15T03:58:08;95070.53;;;5.49;69.90
10462;BME280;5278;42.656;23.374;2024-02-15T04:00:35;95038.66;;;5.31;69.99
10462;BME280;5278;42.656;23.374;2024-02-15T04:03:02;95070.81;;;5.46;70.21
10462;BME280;5278;42.656;23.374;2024-02-15T04:05:30;95049.22;;;5.28;70.14
10462;BME280;5278;42.656;23.374;2024-02-15T04:07:58;95066.69;;;5.24;70.48
10462;BME280;5278;42.656;23.374;2024-02-15T04:10:29;95065.84;;;5.24;70.75
10462;BME280;5278;42.656;23.374;2024-02-15T04:12:55;95072.78;;;5.23;70.53
10462;BME280;5278;42.656;23.374;2024-02-15T04:15:23;95075.31;;;5.13;71.13
10462;BME280;5278;42.656;23.374;2024-02-15T04:17:50;95078.03;;;5.12;71.04
10462;BME280;5278;42.656;23.374;2024-02-15T04:20:21;95055.22;;;4.98;71.44
10462;BME280;5278;42.656;23.374;2024-02-15T04:22:48;95084.53;;;5.06;71.64
10462;BME280;5278;42.656;23.374;2024-02-15T04:25:15;95089.41;;;5.09;71.75
10462;BME280;5278;42.656;23.374;2024-02-15T04:27:44;95073.97;;;5.19;71.46
10462;BME280;5278;42.656;23.374;2024-02-15T04:30:11;95083.72;;;5.15;71.03
10462;BME280;5278;42.656;23.374;2024-02-15T04:32:38;95075.19;;;5.15;71.01
10462;BME280;5278;42.656;23.374;2024-02-15T04:35:05;95085.63;;;5.13;71.02
10462;BME280;5278;42.656;23.374;2024-02-15T04:37:32;95087.13;;;5.16;71.06
10462;BME280;5278;42.656;23.374;2024-02-15T04:40:00;95085.50;;;5.15;71.18
10462;BME280;5278;42.656;23.374;2024-02-15T04:42:33;95091.53;;;5.04;71.60
10462;BME280;5278;42.656;23.374;2024-02-15T04:45:05;95106.31;;;5.02;72.00
10462;BME280;5278;42.656;23.374;2024-02-15T04:47:33;95101.28;;;5.01;72.09
10462;BME280;5278;42.656;23.374;2024-02-15T04:50:00;95101.19;;;5.02;72.04
10462;BME280;5278;42.656;23.374;2024-02-15T04:52:27;95109.03;;;5.01;72.36
10462;BME280;5278;42.656;23.374;2024-02-15T04:54:55;95086.38;;;4.74;72.45
10462;BME280;5278;42.656;23.374;2024-02-15T04:57:23;95107.72;;;4.86;72.82
10462;BME280;5278;42.656;23.374;2024-02-15T04:59:51;95112.31;;;4.82;73.03
10462;BME280;5278;42.656;23.374;2024-02-15T05:02:19;95117.16;;;4.75;73.19
10462;BME280;5278;42.656;23.374;2024-02-15T05:04:47;95116.38;;;4.85;73.27
10462;BME280;5278;42.656;23.374;2024-02-15T05:07:14;95120.22;;;4.90;72.84
10462;BME280;5278;42.656;23.374;2024-02-15T05:09:42;95121.47;;;4.96;72.71
10462;BME280;5278;42.656;23.374;2024-02-15T05:12:09;95136.59;;;4.89;72.51
10462;BME280;5278;42.656;23.374;2024-02-15T05:14:36;95135.09;;;4.87;72.81
10462;BME280;5278;42.656;23.374;2024-02-15T05:17:03;95117.91;;;4.87;73.08
10462;BME280;5278;42.656;23.374;2024-02-15T05:19:31;95136.31;;;4.83;72.96
10462;BME280;5278;42.656;23.374;2024-02-15T05:21:58;95134.22;;;4.76;73.12
10462;BME280;5278;42.656;23.374;2024-02-15T05:24:24;95121.25;;;4.78;73.47
10462;BME280;5278;42.656;23.374;2024-02-15T05:26:51;95134.22;;;4.76;73.25
10462;BME280;5278;42.656;23.374;2024-02-15T05:29:18;95119.66;;;4.66;73.86
10462;BME280;5278;42.656;23.374;2024-02-15T05:31:46;95137.19;;;4.72;73.55
10462;BME280;5278;42.656;23.374;2024-02-15T05:34:15;95142.94;;;4.85;73.55
10462;BME280;5278;42.656;23.374;2024-02-15T05:36:43;95149.66;;;4.76;73.50
10462;BME280;5278;42.656;23.374;2024-02-15T05:39:10;95138.00;;;4.72;73.50
10462;BME280;5278;42.656;23.374;2024-02-15T05:41:40;95154.88;;;4.86;72.73
10462;BME280;5278;42.656;23.374;2024-02-15T05:44:06;95157.72;;;4.83;72.84
10462;BME280;5278;42.656;23.374;2024-02-15T05:46:33;95143.75;;;4.86;73.02
10462;BME280;5278;42.656;23.374;2024-02-15T05:49:03;95149.84;;;4.85;72.82
10462;BME280;5278;42.656;23.374;2024-02-15T05:51:30;95150.28;;;4.90;72.88
10462;BME280;5278;42.656;23.374;2024-02-15T05:54:00;95147.19;;;4.96;72.54
10462;BME280;5278;42.656;23.374;2024-02-15T05:56:27;95144.88;;;4.93;72.47
10462;BME280;5278;42.656;23.374;2024-02-15T05:58:54;95148.03;;;4.96;72.23
10462;BME280;5278;42.656;23.374;2024-02-15T06:01:22;95145.75;;;5.03;72.21
10462;BME280;5278;42.656;23.374;2024-02-15T06:03:49;95152.34;;;4.96;72.20
10462;BME280;5278;42.656;23.374;2024-02-15T06:06:20;95166.91;;;5.06;72.39
10462;BME280;5278;42.656;23.374;2024-02-15T06:08:47;95070.19;;;4.53;71.99
10462;BME280;5278;42.656;23.374;2024-02-15T06:11:18;95173.34;;;5.22;71.60
10462;BME280;5278;42.656;23.374;2024-02-15T06:13:45;95181.75;;;5.24;71.38
10462;BME280;5278;42.656;23.374;2024-02-15T06:16:12;95171.16;;;5.17;71.03
10462;BME280;5278;42.656;23.374;2024-02-15T06:18:38;95180.31;;;5.31;70.93
10462;BME280;5278;42.656;23.374;2024-02-15T06:21:05;95185.47;;;5.31;70.86
10462;BME280;5278;42.656;23.374;2024-02-15T06:23:33;95193.44;;;5.28;71.25
10462;BME280;5278;42.656;23.374;2024-02-15T06:26:00;95184.75;;;5.29;70.86
10462;BME280;5278;42.656;23.374;2024-02-15T06:28:29;95188.34;;;5.37;71.10
10462;BME280;5278;42.656;23.374;2024-02-15T06:31:16;95188.72;;;5.33;71.23
10462;BME280;5278;42.656;23.374;2024-02-15T06:34:00;95192.53;;;5.38;70.88
10462;BME280;5278;42.656;23.374;2024-02-15T06:36:46;95193.38;;;5.48;70.43
10462;BME280;5278;42.656;23.374;2024-02-15T06:39:30;95198.94;;;5.44;70.35
10462;BME280;5278;42.656;23.374;2024-02-15T06:42:07;95192.84;;;5.45;69.86
10462;BME280;5278;42.656;23.374;2024-02-15T06:44:35;95198.00;;;5.45;70.22
10462;BME280;5278;42.656;23.374;2024-02-15T06:47:02;95204.94;;;5.54;70.19
10462;BME280;5278;42.656;23.374;2024-02-15T06:49:29;95195.56;;;5.53;69.58
10462;BME280;5278;42.656;23.374;2024-02-15T06:51:55;95200.06;;;5.51;70.26
10462;BME280;5278;42.656;23.374;2024-02-15T06:54:24;95200.22;;;5.59;69.87
10462;BME280;5278;42.656;23.374;2024-02-15T06:56:51;95194.34;;;5.78;69.47
10462;BME280;5278;42.656;23.374;2024-02-15T06:59:19;95193.84;;;5.93;68.92
10462;BME280;5278;42.656;23.374;2024-02-15T07:01:49;95190.50;;;6.02;67.88
10462;BME280;5278;42.656;23.374;2024-02-15T07:04:17;95186.59;;;6.27;67.00
10462;BME280;5278;42.656;23.374;2024-02-15T07:06:44;95181.16;;;6.40;65.96
10462;BME280;5278;42.656;23.374;2024-02-15T07:09:13;95184.44;;;6.52;65.54
10462;BME280;5278;42.656;23.374;2024-02-15T07:11:43;95179.31;;;7.17;66.31
10462;BME280;5278;42.656;23.374;2024-02-15T07:14:09;95178.88;;;7.96;63.38
10462;BME280;5278;42.656;23.374;2024-02-15T07:16:36;95186.97;;;8.55;57.79
10462;BME280;5278;42.656;23.374;2024-02-15T07:19:05;95170.16;;;9.03;56.42
10462;BME280;5278;42.656;23.374;2024-02-15T07:21:34;95183.13;;;9.03;55.06
10462;BME280;5278;42.656;23.374;2024-02-15T07:24:01;95176.28;;;9.45;52.85
10462;BME280;5278;42.656;23.374;2024-02-15T07:26:30;95140.81;;;8.94;52.82
10462;BME280;5278;42.656;23.374;2024-02-15T07:28:56;95176.28;;;8.76;54.26
10462;BME280;5278;42.656;23.374;2024-02-15T07:31:27;95184.28;;;8.47;54.41
10462;BME280;5278;42.656;23.374;2024-02-15T07:33:54;95180.97;;;8.10;56.38
10462;BME280;5278;42.656;23.374;2024-02-15T07:36:23;95195.44;;;8.03;56.42
10462;BME280;5278;42.656;23.374;2024-02-15T07:38:51;95179.38;;;7.99;56.59
10462;BME280;5278;42.656;23.374;2024-02-15T07:41:21;95164.28;;;7.77;57.32
10462;BME280;5278;42.656;23.374;2024-02-15T07:43:48;95181.94;;;8.36;56.33
10462;BME280;5278;42.656;23.374;2024-02-15T07:46:15;95176.66;;;8.81;54.83
10462;BME280;5278;42.656;23.374;2024-02-15T07:48:42;95172.53;;;9.14;52.78
10462;BME280;5278;42.656;23.374;2024-02-15T07:51:12;95172.63;;;9.98;50.06
10462;BME280;5278;42.656;23.374;2024-02-15T07:53:40;95165.50;;;11.07;46.99
10462;BME280;5278;42.656;23.374;2024-02-15T07:56:08;95158.16;;;12.29;43.91
10462;BME280;5278;42.656;23.374;2024-02-15T07:58:38;95123.41;;;12.82;41.22
10462;BME280;5278;42.656;23.374;2024-02-15T08:01:06;95142.94;;;14.83;64.95
10462;BME280;5278;42.656;23.374;2024-02-15T08:03:33;95136.41;;;17.18;53.50
10462;BME280;5278;42.656;23.374;2024-02-15T08:06:00;95126.63;;;18.87;42.40
10462;BME280;5278;42.656;23.374;2024-02-15T08:08:31;95121.44;;;20.46;35.34
10462;BME280;5278;42.656;23.374;2024-02-15T08:11:01;95118.41;;;21.67;30.26
10462;BME280;5278;42.656;23.374;2024-02-15T08:13:28;95122.72;;;22.31;27.92
10462;BME280;5278;42.656;23.374;2024-02-15T08:15:55;95115.88;;;22.75;27.23
10462;BME280;5278;42.656;23.374;2024-02-15T08:18:22;95115.78;;;23.15;26.11
10462;BME280;5278;42.656;23.374;2024-02-15T08:20:48;95113.09;;;23.82;24.93
10462;BME280;5278;42.656;23.374;2024-02-15T08:23:15;95111.25;;;24.42;24.70
10462;BME280;5278;42.656;23.374;2024-02-15T08:25:42;95110.84;;;24.29;22.61
10462;BME280;5278;42.656;23.374;2024-02-15T08:28:10;95111.38;;;24.09;23.05
10462;BME280;5278;42.656;23.374;2024-02-15T08:30:38;95119.69;;;22.67;23.68
10462;BME280;5278;42.656;23.374;2024-02-15T08:33:05;95124.47;;;21.67;24.63
10462;BME280;5278;42.656;23.374;2024-02-15T08:35:31;95118.41;;;21.67;25.28
10462;BME280;5278;42.656;23.374;2024-02-15T08:37:58;95115.06;;;21.71;24.71
10462;BME280;5278;42.656;23.374;2024-02-15T08:40:25;95121.03;;;21.90;24.99
10462;BME280;5278;42.656;23.374;2024-02-15T08:42:53;95083.34;;;22.23;24.65
10462;BME280;5278;42.656;23.374;2024-02-15T08:45:22;95112.53;;;22.40;24.21
10462;BME280;5278;42.656;23.374;2024-02-15T08:47:49;95119.78;;;22.44;23.77
10462;BME280;5278;42.656;23.374;2024-02-15T08:50:18;95111.59;;;21.47;24.99
10462;BME280;5278;42.656;23.374;2024-02-15T08:52:47;95121.72;;;20.86;25.41
10462;BME280;5278;42.656;23.374;2024-02-15T08:55:15;95117.13;;;20.15;26.39
10462;BME280;5278;42.656;23.374;2024-02-15T08:57:42;95110.72;;;20.23;26.51
10462;BME280;5278;42.656;23.374;2024-02-15T09:00:10;95111.59;;;20.53;26.60
10462;BME280;5278;42.656;23.374;2024-02-15T09:02:41;95107.22;;;21.65;25.49
10462;BME280;5278;42.656;23.374;2024-02-15T09:05:08;95108.47;;;22.09;24.68
10462;BME280;5278;42.656;23.374;2024-02-15T09:07:35;95072.41;;;22.19;23.99
10462;BME280;5278;42.656;23.374;2024-02-15T09:10:02;95101.94;;;22.68;23.73
10462;BME280;5278;42.656;23.374;2024-02-15T09:12:29;95099.53;;;23.11;23.20
10462;BME280;5278;42.656;23.374;2024-02-15T09:14:57;95093.03;;;23.69;22.89
10462;BME280;5278;42.656;23.374;2024-02-15T09:17:23;95089.88;;;24.32;22.22
10462;BME280;5278;42.656;23.374;2024-02-15T09:19:53;95078.28;;;24.17;22.21
10462;BME280;5278;42.656;23.374;2024-02-15T09:22:20;95090.50;;;24.39;22.09
10462;BME280;5278;42.656;23.374;2024-02-15T09:24:46;95090.81;;;24.21;22.11
10462;BME280;5278;42.656;23.374;2024-02-15T09:27:13;95084.50;;;24.49;22.04
10462;BME280;5278;42.656;23.374;2024-02-15T09:29:40;95087.84;;;24.88;21.33
10462;BME280;5278;42.656;23.374;2024-02-15T09:32:07;95090.19;;;24.84;21.77
10462;BME280;5278;42.656;23.374;2024-02-15T09:34:34;95090.13;;;25.38;21.00
10462;BME280;5278;42.656;23.374;2024-02-15T09:37:02;95078.31;;;25.24;21.28
10462;BME280;5278;42.656;23.374;2024-02-15T09:39:30;95081.97;;;25.50;21.01
10462;BME280;5278;42.656;23.374;2024-02-15T09:41:57;95078.19;;;25.46;20.90
10462;BME280;5278;42.656;23.374;2024-02-15T09:44:25;95076.16;;;24.89;21.11
10462;BME280;5278;42.656;23.374;2024-02-15T09:47:02;95081.28;;;24.47;21.56
10462;BME280;5278;42.656;23.374;2024-02-15T09:49:32;95090.13;;;24.31;21.61
10462;BME280;5278;42.656;23.374;2024-02-15T09:52:04;95077.47;;;24.38;21.78
10462;BME280;5278;42.656;23.374;2024-02-15T09:54:32;95071.56;;;24.84;21.20
10462;BME280;5278;42.656;23.374;2024-02-15T09:57:01;95070.66;;;25.33;20.76
10462;BME280;5278;42.656;23.374;2024-02-15T09:59:29;95072.31;;;26.23;20.27
10462;BME280;5278;42.656;23.374;2024-02-15T10:01:58;95064.69;;;26.62;19.61
10462;BME280;5278;42.656;23.374;2024-02-15T10:04:25;95068.44;;;26.71;19.66
10462;BME280;5278;42.656;23.374;2024-02-15T10:06:52;95062.66;;;26.89;19.13
10462;BME280;5278;42.656;23.374;2024-02-15T10:09:30;95068.47;;;26.86;19.31
10462;BME280;5278;42.656;23.374;2024-02-15T10:11:58;95055.72;;;27.08;19.26
10462;BME280;5278;42.656;23.374;2024-02-15T10:14:25;94950.41;;;25.93;19.39
10462;BME280;5278;42.656;23.374;2024-02-15T10:16:52;95047.44;;;26.07;19.94
10462;BME280;5278;42.656;23.374;2024-02-15T10:19:20;95054.28;;;25.88;19.96
10462;BME280;5278;42.656;23.374;2024-02-15T10:21:51;95043.44;;;25.57;20.40
10462;BME280;5278;42.656;23.374;2024-02-15T10:24:21;95044.03;;;25.64;20.22
10462;BME280;5278;42.656;23.374;2024-02-15T10:26:50;95032.59;;;26.26;20.10
10462;BME280;5278;42.656;23.374;2024-02-15T10:29:18;95034.06;;;26.84;19.57
10462;BME280;5278;42.656;23.374;2024-02-15T10:31:53;95030.06;;;27.37;19.11
10462;BME280;5278;42.656;23.374;2024-02-15T10:34:20;95027.97;;;27.29;18.94
10462;BME280;5278;42.656;23.374;2024-02-15T10:36:47;95023.69;;;27.13;18.74
10462;BME280;5278;42.656;23.374;2024-02-15T10:39:14;95018.59;;;27.42;19.12
10462;BME280;5278;42.656;23.374;2024-02-15T10:41:45;95018.28;;;27.74;18.80
10462;BME280;5278;42.656;23.374;2024-02-15T10:44:18;95017.22;;;27.60;18.70
10462;BME280;5278;42.656;23.374;2024-02-15T10:46:46;95017.19;;;27.75;18.55
10462;BME280;5278;42.656;23.374;2024-02-15T10:49:19;95008.69;;;28.37;18.54
10462;BME280;5278;42.656;23.374;2024-02-15T10:51:50;95008.56;;;27.98;18.33
10462;BME280;5278;42.656;23.374;2024-02-15T10:54:37;95013.88;;;28.18;17.88
10462;BME280;5278;42.656;23.374;2024-02-15T10:57:09;95012.44;;;27.47;18.85
10462;BME280;5278;42.656;23.374;2024-02-15T10:59:38;94996.47;;;27.01;18.78
10462;BME280;5278;42.656;23.374;2024-02-15T11:02:25;95000.28;;;26.12;19.65
10462;BME280;5278;42.656;23.374;2024-02-15T11:04:53;95004.66;;;26.39;19.82
10462;BME280;5278;42.656;23.374;2024-02-15T11:07:24;95004.75;;;27.00;18.99
10462;BME280;5278;42.656;23.374;2024-02-15T11:09:53;94996.69;;;27.35;19.06
10462;BME280;5278;42.656;23.374;2024-02-15T11:12:22;94999.13;;;27.11;19.08
10462;BME280;5278;42.656;23.374;2024-02-15T11:14:51;94997.78;;;27.39;18.41
10462;BME280;5278;42.656;23.374;2024-02-15T11:17:46;94986.47;;;27.82;18.68
10462;BME280;5278;42.656;23.374;2024-02-15T11:20:45;94986.72;;;27.81;18.87
10462;BME280;5278;42.656;23.374;2024-02-15T11:23:11;94992.69;;;27.37;18.84
10462;BME280;5278;42.656;23.374;2024-02-15T11:25:38;94987.38;;;27.22;19.13
10462;BME280;5278;42.656;23.374;2024-02-15T11:28:34;94991.94;;;27.02;19.04
10462;BME280;5278;42.656;23.374;2024-02-15T11:31:03;94989.78;;;26.68;19.78
10462;BME280;5278;42.656;23.374;2024-02-15T11:33:31;94937.75;;;26.45;19.29
10462;BME280;5278;42.656;23.374;2024-02-15T11:36:05;94996.41;;;26.50;19.35
10462;BME280;5278;42.656;23.374;2024-02-15T11:38:32;94984.84;;;26.09;19.97
10462;BME280;5278;42.656;23.374;2024-02-15T11:41:00;94987.84;;;26.23;19.93
10462;BME280;5278;42.656;23.374;2024-02-15T11:43:51;94983.50;;;26.17;19.92
10462;BME280;5278;42.656;23.374;2024-02-15T11:46:23;94980.75;;;25.87;20.22
10462;BME280;5278;42.656;23.374;2024-02-15T11:48:52;94977.56;;;25.85;20.01
10462;BME280;5278;42.656;23.374;2024-02-15T11:51:27;94989.56;;;25.40;20.69
10462;BME280;5278;42.656;23.374;2024-02-15T11:54:01;94989.03;;;25.43;20.85
10462;BME280;5278;42.656;23.374;2024-02-15T11:56:31;94969.72;;;25.21;20.75
10462;BME280;5278;42.656;23.374;2024-02-15T11:59:03;94974.13;;;25.00;20.83
10462;BME280;5278;42.656;23.374;2024-02-15T12:01:33;94971.06;;;24.86;21.11
10462;BME280;5278;42.656;23.374;2024-02-15T12:04:18;94974.66;;;24.38;21.48
10462;BME280;5278;42.656;23.374;2024-02-15T12:07:03;94959.25;;;24.40;21.41
10462;BME280;5278;42.656;23.374;2024-02-15T12:09:47;94956.00;;;24.12;22.01
10462;BME280;5278;42.656;23.374;2024-02-15T12:12:31;94964.56;;;23.92;22.39
10462;BME280;5278;42.656;23.374;2024-02-15T12:15:15;94959.97;;;23.61;22.88
10462;BME280;5278;42.656;23.374;2024-02-15T12:18:14;94960.38;;;23.74;22.57
10462;BME280;5278;42.656;23.374;2024-02-15T12:20:59;94958.50;;;23.31;22.39
10462;BME280;5278;42.656;23.374;2024-02-15T12:23:28;94964.03;;;23.30;22.90
10462;BME280;5278;42.656;23.374;2024-02-15T12:25:55;94964.78;;;23.08;23.14
10462;BME280;5278;42.656;23.374;2024-02-15T12:28:23;94969.59;;;23.11;23.37
10462;BME280;5278;42.656;23.374;2024-02-15T12:30:55;94960.88;;;22.94;23.42
10462;BME280;5278;42.656;23.374;2024-02-15T12:33:24;94952.34;;;22.92;23.45
10462;BME280;5278;42.656;23.374;2024-02-15T12:36:03;94956.44;;;22.50;24.26
10462;BME280;5278;42.656;23.374;2024-02-15T12:38:30;94960.72;;;22.22;24.23
10462;BME280;5278;42.656;23.374;2024-02-15T12:40:59;94959.81;;;21.88;25.01
10462;BME280;5278;42.656;23.374;2024-02-15T12:43:27;94957.59;;;21.69;25.21
10462;BME280;5278;42.656;23.374;2024-02-15T12:45:54;94944.88;;;21.54;25.19
10462;BME280;5278;42.656;23.374;2024-02-15T12:48:23;94945.06;;;21.64;25.14
10462;BME280;5278;42.656;23.374;2024-02-15T12:50:50;94951.16;;;21.65;25.54
10462;BME280;5278;42.656;23.374;2024-02-15T12:53:21;94940.16;;;21.56;25.38
10462;BME280;5278;42.656;23.374;2024-02-15T12:55:53;94941.69;;;21.40;25.69
10462;BME280;5278;42.656;23.374;2024-02-15T12:58:21;94930.31;;;20.93;26.29
10462;BME280;5278;42.656;23.374;2024-02-15T13:00:50;94940.06;;;20.58;26.74
10462;BME280;5278;42.656;23.374;2024-02-15T13:03:16;94948.31;;;20.08;27.12
10462;BME280;5278;42.656;23.374;2024-02-15T13:05:44;94950.59;;;19.45;28.13
10462;BME280;5278;42.656;23.374;2024-02-15T13:08:14;94948.81;;;19.03;28.56
10462;BME280;5278;42.656;23.374;2024-02-15T13:10:43;94953.06;;;18.79;29.17
10462;BME280;5278;42.656;23.374;2024-02-15T13:13:10;94966.75;;;18.38;29.63
10462;BME280;5278;42.656;23.374;2024-02-15T13:15:37;94941.56;;;17.92;30.30
10462;BME280;5278;42.656;23.374;2024-02-15T13:18:04;94958.84;;;17.75;30.89